sensor_id;sensor_type;location;lat;lon;timestamp;pressure;altitude;pressure_sealevel;temperature;humidity
37486;BME280;23341;50.296;18.960;2024-02-21T00:00:36;48125.66;;;-144.43;100.00
37486;BME280;23341;50.296;18.960;2024-02-21T00:03:25;48111.69;;;-144.43;100.00
37486;BME280;23341;50.296;18.960;2024-02-21T00:05:52;48145.66;;;-144.43;100.00
37486;BME280;23341;50.296;18.960;2024-02-21T00:08:20;48125.66;;;-144.43;100.00
37486;BME280;23341;50.296;18.960;2024-02-21T00:10:47;48117.66;;;-144.43;100.00
37486;BME280;23341;50.296;18.960;2024-02-21T00:13:16;48111.69;;;-144.43;100.00
37486;BME280;23341;50.296;18.960;2024-02-21T00:15:44;48157.63;;;-144.43;100.00
37486;BME280;23341;50.296;18.960;2024-02-21T00:18:11;48135.66;;;-144.43;100.00
37486;BME280;23341;50.296;18.960;2024-02-21T00:20:39;48155.63;;;-144.43;100.00
37486;BME280;23341;50.296;18.960;2024-02-21T00:23:06;48113.69;;;-144.43;100.00
37486;BME280;23341;50.296;18.960;2024-02-21T00:25:34;48107.69;;;-144.43;100.00
37486;BME280;23341;50.296;18.960;2024-02-21T00:28:01;48141.66;;;-144.43;100.00
37486;BME280;23341;50.296;18.960;2024-02-21T00:30:30;48145.66;;;-144.43;100.00
37486;BME280;23341;50.296;18.960;2024-02-21T00:32:58;48149.63;;;-144.43;100.00
37486;BME280;23341;50.296;18.960;2024-02-21T00:35:25;48147.63;;;-144.43;100.00
37486;BME280;23341;50.296;18.960;2024-02-21T00:37:52;48137.66;;;-144.43;100.00
37486;BME280;23341;50.296;18.960;2024-02-21T00:40:20;48133.66;;;-144.43;100.00
37486;BME280;23341;50.296;18.960;2024-02-21T00:42:48;48137.66;;;-144.43;100.00
37486;BME280;23341;50.296;18.960;2024-02-21T00:45:15;48115.66;;;-144.43;100.00
37486;BME280;23341;50.296;18.960;2024-02-21T00:47:44;48131.66;;;-144.43;100.00
37486;BME280;23341;50.296;18.960;2024-02-21T00:50:12;48107.69;;;-144.43;100.00
37486;BME280;23341;50.296;18.960;2024-02-21T00:52:39;48123.66;;;-144.43;100.00
37486;BME280;23341;50.296;18.960;2024-02-21T00:55:08;48123.66;;;-144.43;100.00
37486;BME280;23341;50.296;18.960;2024-02-21T00:57:36;48127.66;;;-144.43;100.00
37486;BME280;23341;50.296;18.960;2024-02-21T01:00:04;48127.66;;;-144.43;100.00
37486;BME280;23341;50.296;18.960;2024-02-21T01:02:34;48105.69;;;-144.43;100.00
37486;BME280;23341;50.296;18.960;2024-02-21T01:05:03;48137.66;;;-144.43;100.00
37486;BME280;23341;50.296;18.960;2024-02-21T01:07:31;48143.66;;;-144.43;100.00
37486;BME280;23341;50.296;18.960;2024-02-21T01:09:58;48089.69;;;-144.43;100.00
37486;BME280;23341;50.296;18.960;2024-02-21T01:12:26;48123.66;;;-144.43;100.00
37486;BME280;23341;50.296;18.960;2024-02-21T01:14:53;48129.66;;;-144.43;100.00
37486;BME280;23341;50.296;18.960;2024-02-21T01:17:21;48117.66;;;-144.43;100.00
37486;BME280;23341;50.296;18.960;2024-02-21T01:19:48;48119.66;;;-144.43;100.00
37486;BME280;23341;50.296;18.960;2024-02-21T01:22:17;48139.66;;;-144.43;100.00
37486;BME280;23341;50.296;18.960;2024-02-21T01:24:44;48099.69;;;-144.43;100.00
37486;BME280;23341;50.296;18.960;2024-02-21T01:27:12;48107.69;;;-144.43;100.00
37486;BME280;23341;50.296;18.960;2024-02-21T01:29:39;48125.66;;;-144.43;100.00
37486;BME280;23341;50.296;18.960;2024-02-21T01:32:07;48149.63;;;-144.43;100.00
37486;BME280;23341;50.296;18.960;2024-02-21T01:34:34;48147.63;;;-144.43;100.00
37486;BME280;23341;50.296;18.960;2024-02-21T01:37:02;48109.69;;;-144.43;100.00
37486;BME280;23341;50.296;18.960;2024-02-21T01:39:34;48131.66;;;-144.43;100.00
37486;BME280;23341;50.296;18.960;2024-02-21T01:42:01;48155.63;;;-144.43;100.00
37486;BME280;23341;50.296;18.960;2024-02-21T01:44:29;48123.66;;;-144.43;100.00
37486;BME280;23341;50.296;18.960;2024-02-21T01:46:56;48149.63;;;-144.43;100.00
37486;BME280;23341;50.296;18.960;2024-02-21T01:49:24;48147.63;;;-144.43;100.00
37486;BME280;23341;50.296;18.960;2024-02-21T01:51:52;48151.63;;;-144.43;100.00
37486;BME280;23341;50.296;18.960;2024-02-21T01:54:20;48151.63;;;-144.43;100.00
37486;BME280;23341;50.296;18.960;2024-02-21T01:56:49;48129.66;;;-144.43;100.00
37486;BME280;23341;50.296;18.960;2024-02-21T01:59:18;48115.66;;;-144.43;100.00
37486;BME280;23341;50.296;18.960;2024-02-21T02:01:47;48127.66;;;-144.43;100.00
37486;BME280;23341;50.296;18.960;2024-02-21T02:04:14;48131.66;;;-144.43;100.00
37486;BME280;23341;50.296;18.960;2024-02-21T02:06:41;48147.63;;;-144.43;100.00
37486;BME280;23341;50.296;18.960;2024-02-21T02:09:09;48107.69;;;-144.43;100.00
37486;BME280;23341;50.296;18.960;2024-02-21T02:11:37;48113.69;;;-144.43;100.00
37486;BME280;23341;50.296;18.960;2024-02-21T02:14:06;48143.66;;;-144.43;100.00
37486;BME280;23341;50.296;18.960;2024-02-21T02:16:33;48131.66;;;-144.43;100.00
37486;BME280;23341;50.296;18.960;2024-02-21T02:19:01;48115.66;;;-144.43;100.00
37486;BME280;23341;50.296;18.960;2024-02-21T02:21:32;48115.66;;;-144.43;100.00
37486;BME280;23341;50.296;18.960;2024-02-21T02:24:01;48111.69;;;-144.43;100.00
37486;BME280;23341;50.296;18.960;2024-02-21T02:26:29;48143.66;;;-144.43;100.00
37486;BME280;23341;50.296;18.960;2024-02-21T02:28:56;48129.66;;;-144.43;100.00
37486;BME280;23341;50.296;18.960;2024-02-21T02:31:23;48131.66;;;-144.43;100.00
37486;BME280;23341;50.296;18.960;2024-02-21T02:33:51;48115.66;;;-144.43;100.00
37486;BME280;23341;50.296;18.960;2024-02-21T02:36:18;48143.66;;;-144.43;100.00
37486;BME280;23341;50.296;18.960;2024-02-21T02:38:46;48103.69;;;-144.43;100.00
37486;BME280;23341;50.296;18.960;2024-02-21T02:41:15;48143.66;;;-144.43;100.00
37486;BME280;23341;50.296;18.960;2024-02-21T02:43:42;48127.66;;;-144.43;100.00
37486;BME280;23341;50.296;18.960;2024-02-21T02:46:10;48135.66;;;-144.43;100.00
37486;BME280;23341;50.296;18.960;2024-02-21T02:48:37;48123.66;;;-144.43;100.00
37486;BME280;23341;50.296;18.960;2024-02-21T02:51:05;48139.66;;;-144.43;100.00
37486;BME280;23341;50.296;18.960;2024-02-21T02:53:32;48125.66;;;-144.43;100.00
37486;BME280;23341;50.296;18.960;2024-02-21T02:56:00;48109.69;;;-144.43;100.00
37486;BME280;23341;50.296;18.960;2024-02-21T02:58:29;48143.66;;;-144.43;100.00
37486;BME280;23341;50.296;18.960;2024-02-21T03:00:56;48129.66;;;-144.43;100.00
37486;BME280;23341;50.296;18.960;2024-02-21T03:03:23;48123.66;;;-144.43;100.00
37486;BME280;23341;50.296;18.960;2024-02-21T03:05:51;48113.69;;;-144.43;100.00
37486;BME280;23341;50.296;18.960;2024-02-21T03:08:18;48153.63;;;-144.43;100.00
37486;BME280;23341;50.296;18.960;2024-02-21T03:10:46;48133.66;;;-144.43;100.00
37486;BME280;23341;50.296;18.960;2024-02-21T03:13:13;48143.66;;;-144.43;100.00
37486;BME280;23341;50.296;18.960;2024-02-21T03:15:42;48135.66;;;-144.43;100.00
37486;BME280;23341;50.296;18.960;2024-02-21T03:18:09;48127.66;;;-144.43;100.00
37486;BME280;23341;50.296;18.960;2024-02-21T03:20:37;48139.66;;;-144.43;100.00
37486;BME280;23341;50.296;18.960;2024-02-21T03:23:04;48147.63;;;-144.43;100.00
37486;BME280;23341;50.296;18.960;2024-02-21T03:25:32;48119.66;;;-144.43;100.00
37486;BME280;23341;50.296;18.960;2024-02-21T03:27:59;48131.66;;;-144.43;100.00
37486;BME280;23341;50.296;18.960;2024-02-21T03:30:28;48121.66;;;-144.43;100.00
37486;BME280;23341;50.296;18.960;2024-02-21T03:32:56;48135.66;;;-144.43;100.00
37486;BME280;23341;50.296;18.960;2024-02-21T03:35:24;48105.69;;;-144.43;100.00
37486;BME280;23341;50.296;18.960;2024-02-21T03:37:53;48139.66;;;-144.43;100.00
37486;BME280;23341;50.296;18.960;2024-02-21T03:40:20;48137.66;;;-144.43;100.00
37486;BME280;23341;50.296;18.960;2024-02-21T03:42:48;48119.66;;;-144.43;100.00
37486;BME280;23341;50.296;18.960;2024-02-21T03:45:15;48115.66;;;-144.43;100.00
37486;BME280;23341;50.296;18.960;2024-02-21T03:47:43;48157.63;;;-144.43;100.00
37486;BME280;23341;50.296;18.960;2024-02-21T03:50:12;48135.66;;;-144.43;100.00
37486;BME280;23341;50.296;18.960;2024-02-21T03:52:39;48113.69;;;-144.43;100.00
37486;BME280;23341;50.296;18.960;2024-02-21T03:55:08;48143.66;;;-144.43;100.00
37486;BME280;23341;50.296;18.960;2024-02-21T03:57:35;48107.69;;;-144.43;100.00
37486;BME280;23341;50.296;18.960;2024-02-21T04:00:04;48137.66;;;-144.43;100.00
37486;BME280;23341;50.296;18.960;2024-02-21T04:02:34;48131.66;;;-144.43;100.00
37486;BME280;23341;50.296;18.960;2024-02-21T04:05:02;48135.66;;;-144.43;100.00
37486;BME280;23341;50.296;18.960;2024-02-21T04:07:31;48117.66;;;-144.43;100.00
37486;BME280;23341;50.296;18.960;2024-02-21T04:09:59;48115.66;;;-144.43;100.00
37486;BME280;23341;50.296;18.960;2024-02-21T04:12:26;48097.69;;;-144.43;100.00
37486;BME280;23341;50.296;18.960;2024-02-21T04:14:54;48125.66;;;-144.43;100.00
37486;BME280;23341;50.296;18.960;2024-02-21T04:17:21;48135.66;;;-144.43;100.00
37486;BME280;23341;50.296;18.960;2024-02-21T04:19:48;48107.69;;;-144.43;100.00
37486;BME280;23341;50.296;18.960;2024-02-21T04:22:16;48127.66;;;-144.43;100.00
37486;BME280;23341;50.296;18.960;2024-02-21T04:24:45;48137.66;;;-144.43;100.00
37486;BME280;23341;50.296;18.960;2024-02-21T04:27:12;48125.66;;;-144.43;100.00
37486;BME280;23341;50.296;18.960;2024-02-21T04:29:40;48143.66;;;-144.43;100.00
37486;BME280;23341;50.296;18.960;2024-02-21T04:32:07;48133.66;;;-144.43;100.00
37486;BME280;23341;50.296;18.960;2024-02-21T04:34:35;48111.69;;;-144.43;100.00
37486;BME280;23341;50.296;18.960;2024-02-21T04:37:02;48127.66;;;-144.43;100.00
37486;BME280;23341;50.296;18.960;2024-02-21T04:39:30;48105.69;;;-144.43;100.00
37486;BME280;23341;50.296;18.960;2024-02-21T04:41:59;48139.66;;;-144.43;100.00
37486;BME280;23341;50.296;18.960;2024-02-21T04:44:26;48131.66;;;-144.43;100.00
37486;BME280;23341;50.296;18.960;2024-02-21T04:46:53;48127.66;;;-144.43;100.00
37486;BME280;23341;50.296;18.960;2024-02-21T04:49:21;48113.69;;;-144.43;100.00
37486;BME280;23341;50.296;18.960;2024-02-21T04:51:48;48133.66;;;-144.43;100.00
37486;BME280;23341;50.296;18.960;2024-02-21T04:54:16;48127.66;;;-144.43;100.00
37486;BME280;23341;50.296;18.960;2024-02-21T04:56:43;48107.69;;;-144.43;100.00
37486;BME280;23341;50.296;18.960;2024-02-21T04:59:12;48131.66;;;-144.43;100.00
37486;BME280;23341;50.296;18.960;2024-02-21T05:01:39;48101.69;;;-144.43;100.00
37486;BME280;23341;50.296;18.960;2024-02-21T05:04:07;48099.69;;;-144.43;100.00
37486;BME280;23341;50.296;18.960;2024-02-21T05:06:37;48139.66;;;-144.43;100.00
37486;BME280;23341;50.296;18.960;2024-02-21T05:09:06;48123.66;;;-144.43;100.00
37486;BME280;23341;50.296;18.960;2024-02-21T05:11:34;48115.66;;;-144.43;100.00
37486;BME280;23341;50.296;18.960;2024-02-21T05:14:02;48123.66;;;-144.43;100.00
37486;BME280;23341;50.296;18.960;2024-02-21T05:16:31;48135.66;;;-144.43;100.00
37486;BME280;23341;50.296;18.960;2024-02-21T05:18:59;48123.66;;;-144.43;100.00
37486;BME280;23341;50.296;18.960;2024-02-21T05:21:26;48113.69;;;-144.43;100.00
37486;BME280;23341;50.296;18.960;2024-02-21T05:23:54;48121.66;;;-144.43;100.00
37486;BME280;23341;50.296;18.960;2024-02-21T05:26:22;48131.66;;;-144.43;100.00
37486;BME280;23341;50.296;18.960;2024-02-21T05:28:50;48143.66;;;-144.43;100.00
37486;BME280;23341;50.296;18.960;2024-02-21T05:31:17;48163.63;;;-144.43;100.00
37486;BME280;23341;50.296;18.960;2024-02-21T05:33:47;48157.63;;;-144.43;100.00
37486;BME280;23341;50.296;18.960;2024-02-21T05:36:14;48139.66;;;-144.43;100.00
37486;BME280;23341;50.296;18.960;2024-02-21T05:38:42;48133.66;;;-144.43;100.00
37486;BME280;23341;50.296;18.960;2024-02-21T05:41:09;48107.69;;;-144.43;100.00
37486;BME280;23341;50.296;18.960;2024-02-21T05:43:37;48135.66;;;-144.43;100.00
37486;BME280;23341;50.296;18.960;2024-02-21T05:46:04;48121.66;;;-144.43;100.00
37486;BME280;23341;50.296;18.960;2024-02-21T05:48:32;48127.66;;;-144.43;100.00
37486;BME280;23341;50.296;18.960;2024-02-21T05:51:01;48119.66;;;-144.43;100.00
37486;BME280;23341;50.296;18.960;2024-02-21T05:53:29;48141.66;;;-144.43;100.00
37486;BME280;23341;50.296;18.960;2024-02-21T05:55:56;48113.69;;;-144.43;100.00
37486;BME280;23341;50.296;18.960;2024-02-21T05:58:24;48125.66;;;-144.43;100.00
37486;BME280;23341;50.296;18.960;2024-02-21T06:00:51;48139.66;;;-144.43;100.00
37486;BME280;23341;50.296;18.960;2024-02-21T06:03:20;48109.69;;;-144.43;100.00
37486;BME280;23341;50.296;18.960;2024-02-21T06:05:47;48125.66;;;-144.43;100.00
37486;BME280;23341;50.296;18.960;2024-02-21T06:08:16;48143.66;;;-144.43;100.00
37486;BME280;23341;50.296;18.960;2024-02-21T06:10:43;48141.66;;;-144.43;100.00
37486;BME280;23341;50.296;18.960;2024-02-21T06:13:11;48123.66;;;-144.43;100.00
37486;BME280;23341;50.296;18.960;2024-02-21T06:15:38;48123.66;;;-144.43;100.00
37486;BME280;23341;50.296;18.960;2024-02-21T06:18:06;48139.66;;;-144.43;100.00
37486;BME280;23341;50.296;18.960;2024-02-21T06:20:33;48133.66;;;-144.43;100.00
37486;BME280;23341;50.296;18.960;2024-02-21T06:23:03;48125.66;;;-144.43;100.00
37486;BME280;23341;50.296;18.960;2024-02-21T06:25:31;48169.63;;;-144.43;100.00
37486;BME280;23341;50.296;18.960;2024-02-21T06:27:59;48155.63;;;-144.43;100.00
37486;BME280;23341;50.296;18.960;2024-02-21T06:30:26;48115.66;;;-144.43;100.00
37486;BME280;23341;50.296;18.960;2024-02-21T06:32:54;48109.69;;;-144.43;100.00
37486;BME280;23341;50.296;18.960;2024-02-21T06:35:22;48123.66;;;-144.43;100.00
37486;BME280;23341;50.296;18.960;2024-02-21T06:37:50;48119.66;;;-144.43;100.00
37486;BME280;23341;50.296;18.960;2024-02-21T06:40:20;48107.69;;;-144.43;100.00
37486;BME280;23341;50.296;18.960;2024-02-21T06:42:50;48119.66;;;-144.43;100.00
37486;BME280;23341;50.296;18.960;2024-02-21T06:45:17;48123.66;;;-144.43;100.00
37486;BME280;23341;50.296;18.960;2024-02-21T06:47:45;48145.66;;;-144.43;100.00
37486;BME280;23341;50.296;18.960;2024-02-21T06:50:13;48123.66;;;-144.43;100.00
37486;BME280;23341;50.296;18.960;2024-02-21T06:52:40;48121.66;;;-144.43;100.00
37486;BME280;23341;50.296;18.960;2024-02-21T06:55:08;48129.66;;;-144.43;100.00
37486;BME280;23341;50.296;18.960;2024-02-21T06:57:35;48143.66;;;-144.43;100.00
37486;BME280;23341;50.296;18.960;2024-02-21T07:00:05;48155.63;;;-144.43;100.00
37486;BME280;23341;50.296;18.960;2024-02-21T07:02:34;48127.66;;;-144.43;100.00
37486;BME280;23341;50.296;18.960;2024-02-21T07:05:02;48139.66;;;-144.43;100.00
37486;BME280;23341;50.296;18.960;2024-02-21T07:07:30;48133.66;;;-144.43;100.00
37486;BME280;23341;50.296;18.960;2024-02-21T07:09:57;48117.66;;;-144.43;100.00
37486;BME280;23341;50.296;18.960;2024-02-21T07:12:26;48139.66;;;-144.43;100.00
37486;BME280;23341;50.296;18.960;2024-02-21T07:14:53;48123.66;;;-144.43;100.00
37486;BME280;23341;50.296;18.960;2024-02-21T07:17:22;48139.66;;;-144.43;100.00
37486;BME280;23341;50.296;18.960;2024-02-21T07:19:50;48121.66;;;-144.43;100.00
37486;BME280;23341;50.296;18.960;2024-02-21T07:22:17;48119.66;;;-144.43;100.00
37486;BME280;23341;50.296;18.960;2024-02-21T07:24:44;48137.66;;;-144.43;100.00
37486;BME280;23341;50.296;18.960;2024-02-21T07:27:14;48121.66;;;-144.43;100.00
37486;BME280;23341;50.296;18.960;2024-02-21T07:29:42;48143.66;;;-144.43;100.00
37486;BME280;23341;50.296;18.960;2024-02-21T07:32:13;48135.66;;;-144.43;100.00
37486;BME280;23341;50.296;18.960;2024-02-21T07:34:42;48149.63;;;-144.43;100.00
37486;BME280;23341;50.296;18.960;2024-02-21T07:37:10;48131.66;;;-144.43;100.00
37486;BME280;23341;50.296;18.960;2024-02-21T07:39:37;48113.69;;;-144.43;100.00
37486;BME280;23341;50.296;18.960;2024-02-21T07:42:05;48115.66;;;-144.43;100.00
37486;BME280;23341;50.296;18.960;2024-02-21T07:44:33;48143.66;;;-144.43;100.00
37486;BME280;23341;50.296;18.960;2024-02-21T07:47:00;48117.66;;;-144.43;100.00
37486;BME280;23341;50.296;18.960;2024-02-21T07:49:28;48151.63;;;-144.43;100.00
37486;BME280;23341;50.296;18.960;2024-02-21T07:51:57;48133.66;;;-144.43;100.00
37486;BME280;23341;50.296;18.960;2024-02-21T07:54:24;48155.63;;;-144.43;100.00
37486;BME280;23341;50.296;18.960;2024-02-21T07:56:52;48155.63;;;-144.43;100.00
37486;BME280;23341;50.296;18.960;2024-02-21T07:59:19;48161.63;;;-144.43;100.00
37486;BME280;23341;50.296;18.960;2024-02-21T08:01:47;48171.63;;;-144.43;100.00
37486;BME280;23341;50.296;18.960;2024-02-21T08:04:14;48123.66;;;-144.43;100.00
37486;BME280;23341;50.296;18.960;2024-02-21T08:06:42;48135.66;;;-144.43;100.00
37486;BME280;23341;50.296;18.960;2024-02-21T08:09:12;48167.63;;;-144.43;100.00
37486;BME280;23341;50.296;18.960;2024-02-21T08:11:40;48149.63;;;-144.43;100.00
37486;BME280;23341;50.296;18.960;2024-02-21T08:14:07;48147.63;;;-144.43;100.00
37486;BME280;23341;50.296;18.960;2024-02-21T08:16:35;48163.63;;;-144.43;100.00
37486;BME280;23341;50.296;18.960;2024-02-21T08:19:02;48151.63;;;-144.43;100.00
37486;BME280;23341;50.296;18.960;2024-02-21T08:21:30;48139.66;;;-144.43;100.00
37486;BME280;23341;50.296;18.960;2024-02-21T08:23:57;48141.66;;;-144.43;100.00
37486;BME280;23341;50.296;18.960;2024-02-21T08:26:26;48147.63;;;-144.43;100.00
37486;BME280;23341;50.296;18.960;2024-02-21T08:28:56;48155.63;;;-144.43;100.00
37486;BME280;23341;50.296;18.960;2024-02-21T08:31:25;48135.66;;;-144.43;100.00
37486;BME280;23341;50.296;18.960;2024-02-21T08:33:57;48139.66;;;-144.43;100.00
37486;BME280;23341;50.296;18.960;2024-02-21T08:36:28;48137.66;;;-144.43;100.00
37486;BME280;23341;50.296;18.960;2024-02-21T08:38:56;48155.63;;;-144.43;100.00
37486;BME280;23341;50.296;18.960;2024-02-21T08:41:25;48161.63;;;-144.43;100.00
37486;BME280;23341;50.296;18.960;2024-02-21T08:43:53;48163.63;;;-144.43;100.00
37486;BME280;23341;50.296;18.960;2024-02-21T08:46:21;48195.59;;;-144.43;100.00
37486;BME280;23341;50.296;18.960;2024-02-21T08:48:50;48175.63;;;-144.43;100.00
37486;BME280;23341;50.296;18.960;2024-02-21T08:51:18;48165.63;;;-144.43;100.00
37486;BME280;23341;50.296;18.960;2024-02-21T08:53:46;48159.63;;;-144.43;100.00
37486;BME280;23341;50.296;18.960;2024-02-21T08:56:14;48163.63;;;-144.43;100.00
37486;BME280;23341;50.296;18.960;2024-02-21T08:58:43;48191.59;;;-144.43;100.00
37486;BME280;23341;50.296;18.960;2024-02-21T09:01:11;48169.63;;;-144.43;100.00
37486;BME280;23341;50.296;18.960;2024-02-21T09:03:39;48169.63;;;-144.43;100.00
37486;BME280;23341;50.296;18.960;2024-02-21T09:06:07;48179.59;;;-144.43;100.00
37486;BME280;23341;50.296;18.960;2024-02-21T09:08:35;48153.63;;;-144.43;100.00
37486;BME280;23341;50.296;18.960;2024-02-21T09:11:05;48151.63;;;-144.43;100.00
37486;BME280;23341;50.296;18.960;2024-02-21T09:13:33;48161.63;;;-144.43;100.00
37486;BME280;23341;50.296;18.960;2024-02-21T09:16:02;48161.63;;;-144.43;100.00
37486;BME280;23341;50.296;18.960;2024-02-21T09:18:29;48185.59;;;-144.43;100.00
37486;BME280;23341;50.296;18.960;2024-02-21T09:20:57;48191.59;;;-144.43;100.00
37486;BME280;23341;50.296;18.960;2024-02-21T09:23:26;48183.59;;;-144.43;100.00
37486;BME280;23341;50.296;18.960;2024-02-21T09:25:54;48147.63;;;-144.43;100.00
37486;BME280;23341;50.296;18.960;2024-02-21T09:28:21;48163.63;;;-144.43;100.00
37486;BME280;23341;50.296;18.960;2024-02-21T09:30:49;48181.59;;;-144.43;100.00
37486;BME280;23341;50.296;18.960;2024-02-21T09:33:18;48173.63;;;-144.43;100.00
37486;BME280;23341;50.296;18.960;2024-02-21T09:35:45;48165.63;;;-144.43;100.00
37486;BME280;23341;50.296;18.960;2024-02-21T09:38:13;48195.59;;;-144.43;100.00
37486;BME280;23341;50.296;18.960;2024-02-21T09:40:41;48187.59;;;-144.43;100.00
37486;BME280;23341;50.296;18.960;2024-02-21T09:43:08;48185.59;;;-144.43;100.00
37486;BME280;23341;50.296;18.960;2024-02-21T09:45:38;48191.59;;;-144.43;100.00
37486;BME280;23341;50.296;18.960;2024-02-21T09:48:31;48157.63;;;-144.43;100.00
37486;BME280;23341;50.296;18.960;2024-02-21T09:51:03;48199.59;;;-144.43;100.00
37486;BME280;23341;50.296;18.960;2024-02-21T09:53:33;48183.59;;;-144.43;100.00
37486;BME280;23341;50.296;18.960;2024-02-21T09:56:07;48177.63;;;-144.43;100.00
37486;BME280;23341;50.296;18.960;2024-02-21T09:58:35;48163.63;;;-144.43;100.00
37486;BME280;23341;50.296;18.960;2024-02-21T10:01:03;48165.63;;;-144.43;100.00
37486;BME280;23341;50.296;18.960;2024-02-21T10:03:34;48177.63;;;-144.43;100.00
37486;BME280;23341;50.296;18.960;2024-02-21T10:06:02;48175.63;;;-144.43;100.00
37486;BME280;23341;50.296;18.960;2024-02-21T10:08:29;48173.63;;;-144.43;100.00
37486;BME280;23341;50.296;18.960;2024-02-21T10:10:57;48185.59;;;-144.43;100.00
37486;BME280;23341;50.296;18.960;2024-02-21T10:13:27;48183.59;;;-144.43;100.00
37486;BME280;23341;50.296;18.960;2024-02-21T10:16:03;48173.63;;;-144.43;100.00
37486;BME280;23341;50.296;18.960;2024-02-21T10:18:30;48185.59;;;-144.43;100.00
37486;BME280;23341;50.296;18.960;2024-02-21T10:21:04;48155.63;;;-144.43;100.00
37486;BME280;23341;50.296;18.960;2024-02-21T10:23:43;48179.59;;;-144.43;100.00
37486;BME280;23341;50.296;18.960;2024-02-21T10:26:11;48177.63;;;-144.43;100.00
37486;BME280;23341;50.296;18.960;2024-02-21T10:28:38;48205.59;;;-144.43;100.00
37486;BME280;23341;50.296;18.960;2024-02-21T10:31:09;48183.59;;;-144.43;100.00
37486;BME280;23341;50.296;18.960;2024-02-21T10:33:37;48205.59;;;-144.43;100.00
37486;BME280;23341;50.296;18.960;2024-02-21T10:36:10;48191.59;;;-144.43;100.00
37486;BME280;23341;50.296;18.960;2024-02-21T10:38:39;48199.59;;;-144.43;100.00
37486;BME280;23341;50.296;18.960;2024-02-21T10:41:06;48179.59;;;-144.43;100.00
37486;BME280;23341;50.296;18.960;2024-02-21T10:43:39;48177.63;;;-144.43;100.00
37486;BME280;23341;50.296;18.960;2024-02-21T10:46:08;48159.63;;;-144.43;100.00
37486;BME280;23341;50.296;18.960;2024-02-21T10:48:43;48191.59;;;-144.43;100.00
37486;BME280;23341;50.296;18.960;2024-02-21T10:51:16;48199.59;;;-144.43;100.00
37486;BME280;23341;50.296;18.960;2024-02-21T10:53:47;48203.59;;;-144.43;100.00
37486;BME280;23341;50.296;18.960;2024-02-21T10:56:22;48187.59;;;-144.43;100.00
37486;BME280;23341;50.296;18.960;2024-02-21T10:58:53;48189.59;;;-144.43;100.00
37486;BME280;23341;50.296;18.960;2024-02-21T11:01:23;48179.59;;;-144.43;100.00
37486;BME280;23341;50.296;18.960;2024-02-21T11:03:53;48191.59;;;-144.43;100.00
37486;BME280;23341;50.296;18.960;2024-02-21T11:06:23;48149.63;;;-144.43;100.00
37486;BME280;23341;50.296;18.960;2024-02-21T11:09:02;48179.59;;;-144.43;100.00
37486;BME280;23341;50.296;18.960;2024-02-21T11:11:33;48181.59;;;-144.43;100.00
37486;BME280;23341;50.296;18.960;2024-02-21T11:14:10;48169.63;;;-144.43;100.00
37486;BME280;23341;50.296;18.960;2024-02-21T11:16:41;48213.56;;;-144.43;100.00
37486;BME280;23341;50.296;18.960;2024-02-21T11:19:09;48143.66;;;-144.43;100.00
37486;BME280;23341;50.296;18.960;2024-02-21T11:21:39;48169.63;;;-144.43;100.00
37486;BME280;23341;50.296;18.960;2024-02-21T11:24:07;48175.63;;;-144.43;100.00
37486;BME280;23341;50.296;18.960;2024-02-21T11:26:37;48171.63;;;-144.43;100.00
37486;BME280;23341;50.296;18.960;2024-02-21T11:29:05;48177.63;;;-144.43;100.00
37486;BME280;23341;50.296;18.960;2024-02-21T11:31:38;48183.59;;;-144.43;100.00
37486;BME280;23341;50.296;18.960;2024-02-21T11:34:09;48187.59;;;-144.43;100.00
37486;BME280;23341;50.296;18.960;2024-02-21T11:36:45;48157.63;;;-144.43;100.00
37486;BME280;23341;50.296;18.960;2024-02-21T11:39:18;48191.59;;;-144.43;100.00
37486;BME280;23341;50.296;18.960;2024-02-21T11:41:47;48195.59;;;-144.43;100.00
37486;BME280;23341;50.296;18.960;2024-02-21T11:44:14;48169.63;;;-144.43;100.00
37486;BME280;23341;50.296;18.960;2024-02-21T11:46:42;48197.59;;;-144.43;100.00
37486;BME280;23341;50.296;18.960;2024-02-21T11:49:10;48163.63;;;-144.43;100.00
37486;BME280;23341;50.296;18.960;2024-02-21T11:51:37;48183.59;;;-144.43;100.00
37486;BME280;23341;50.296;18.960;2024-02-21T11:54:06;48147.63;;;-144.43;100.00
37486;BME280;23341;50.296;18.960;2024-02-21T11:56:36;48183.59;;;-144.43;100.00
37486;BME280;23341;50.296;18.960;2024-02-21T11:59:04;48171.63;;;-144.43;100.00
37486;BME280;23341;50.296;18.960;2024-02-21T12:01:32;48163.63;;;-144.43;100.00
37486;BME280;23341;50.296;18.960;2024-02-21T12:04:00;48157.63;;;-144.43;100.00
37486;BME280;23341;50.296;18.960;2024-02-21T12:06:29;48179.59;;;-144.43;100.00
37486;BME280;23341;50.296;18.960;2024-02-21T12:08:58;48177.63;;;-144.43;100.00
37486;BME280;23341;50.296;18.960;2024-02-21T12:11:25;48177.63;;;-144.43;100.00
37486;BME280;23341;50.296;18.960;2024-02-21T12:14:01;48153.63;;;-144.43;100.00
37486;BME280;23341;50.296;18.960;2024-02-21T12:16:30;48183.59;;;-144.43;100.00
37486;BME280;23341;50.296;18.960;2024-02-21T12:18:58;48191.59;;;-144.43;100.00
37486;BME280;23341;50.296;18.960;2024-02-21T12:21:26;48191.59;;;-144.43;100.00
37486;BME280;23341;50.296;18.960;2024-02-21T12:23:54;48183.59;;;-144.43;100.00
37486;BME280;23341;50.296;18.960;2024-02-21T12:26:23;48157.63;;;-144.43;100.00